Time;durP1;ratioP1;P1;durP2;ratioP2;P2;SDS_P1;SDS_P2;PMS_P1;PMS_P2;Temp;Humidity;BMP_temperature;BMP_pressure;BME280_temperature;BME280_humidity;BME280_pressure;Samples;Min_cycle;Max_cycle;Signal;HPM_P1;HPM_P2
2022/10/19 00:00:14;;;;;;;;;;;;;;;21.36;62.19;102134.63;5016628;28;2541;-60
2022/10/19 00:02:40;;;;;;;;;;;;;;;21.36;61.93;102120.22;5014001;28;2563;-60
2022/10/19 00:05:06;;;;;;;;;;;;;;;21.33;62.24;102134.50;5006478;28;2831;-60
2022/10/19 00:07:33;;;;;;;;;;;;;;;21.33;62.14;102125.84;5015280;28;2536;-60
2022/10/19 00:10:00;;;;;;;;;;;;;;;21.33;61.88;102128.75;5010377;28;2747;-60
2022/10/19 00:12:26;;;;;;;;;;;;;;;21.32;62.03;102132.97;5014458;28;1919;-60
2022/10/19 00:14:52;;;;;;;;;;;;;;;21.32;62.04;102132.97;5012423;28;2735;-60
2022/10/19 00:17:19;;;;;;;;;;;;;;;21.32;62.20;102144.50;5014358;28;2994;-60
2022/10/19 00:19:45;;;;;;;;;;;;;;;21.31;61.98;102137.25;5013330;28;2889;-60
2022/10/19 00:22:11;;;;;;;;;;;;;;;21.32;62.19;102140.88;5013746;28;2553;-60
2022/10/19 00:24:39;;;;;;;;;;;;;;;21.31;61.80;102137.25;5018947;28;1712;-60
2022/10/19 00:27:05;;;;;;;;;;;;;;;21.32;62.07;102127.22;5008515;28;2948;-60
2022/10/19 00:29:32;;;;;;;;;;;;;;;21.31;62.24;102136.50;5009408;28;2798;-60
2022/10/19 00:31:58;;;;;;;;;;;;;;;21.30;62.09;102138.63;5014626;28;1977;-60
2022/10/19 00:34:24;;;;;;;;;;;;;;;21.31;61.80;102136.50;5010575;28;2856;-60
2022/10/19 00:36:51;;;;;;;;;;;;;;;21.30;62.18;102141.53;5011088;28;3113;-60
2022/10/19 00:39:17;;;;;;;;;;;;;;;21.30;61.83;102137.88;5009247;28;2713;-60
2022/10/19 00:41:44;;;;;;;;;;;;;;;21.29;62.13;102148.66;5010909;28;2603;-60
2022/10/19 00:44:10;;;;;;;;;;;;;;;21.29;61.75;102139.25;5010804;28;2549;-60
2022/10/19 00:46:40;;;;;;;;;;;;;;;21.28;62.12;102127.00;5013581;28;2602;-60
2022/10/19 00:49:07;;;;;;;;;;;;;;;21.29;62.16;102125.59;5005576;28;2823;-60
2022/10/19 00:51:37;;;;;;;;;;;;;;;21.29;62.11;102133.50;5011760;28;2628;-60
2022/10/19 00:54:04;;;;;;;;;;;;;;;21.28;61.98;102127.00;5005041;28;2839;-60
2022/10/19 00:56:30;;;;;;;;;;;;;;;21.28;61.85;102131.97;5014171;28;2738;-60
2022/10/19 00:58:56;;;;;;;;;;;;;;;21.27;62.03;102131.22;5009894;28;2497;-60
2022/10/19 01:01:23;;;;;;;;;;;;;;;21.28;62.06;102129.88;5006068;28;2787;-60
2022/10/19 01:03:49;;;;;;;;;;;;;;;21.28;61.85;102138.50;5014627;28;2686;-60
2022/10/19 01:06:16;;;;;;;;;;;;;;;21.27;61.88;102127.59;5018309;28;2609;-60
2022/10/19 01:08:42;;;;;;;;;;;;;;;21.26;62.07;102123.97;5010977;28;2883;-60
2022/10/19 01:11:27;;;;;;;;;;;;;;;21.26;62.18;102123.97;5012731;28;3013;-60
2022/10/19 01:14:13;;;;;;;;;;;;;;;21.27;62.03;102130.47;5006900;28;2631;-60
2022/10/19 01:16:43;;;;;;;;;;;;;;;21.26;61.71;102120.34;5023452;28;2846;-60
2022/10/19 01:19:17;;;;;;;;;;;;;;;21.26;62.04;102118.22;5026610;28;2810;-60
2022/10/19 01:21:49;;;;;;;;;;;;;;;21.25;61.80;102116.69;5020181;28;2796;-60
2022/10/19 01:24:27;;;;;;;;;;;;;;;21.26;62.07;102117.47;5015195;28;2723;-60
2022/10/19 01:27:12;;;;;;;;;;;;;;;21.24;61.84;102112.31;5028816;28;2977;-60
2022/10/19 01:29:57;;;;;;;;;;;;;;;21.25;61.82;102122.47;5004412;28;3132;-60
2022/10/19 01:32:33;;;;;;;;;;;;;;;21.24;61.90;102108.69;5009689;28;2713;-60
2022/10/19 01:35:05;;;;;;;;;;;;;;;21.25;61.99;102110.94;5029428;28;2900;-60
2022/10/19 01:37:37;;;;;;;;;;;;;;;21.23;61.86;102099.28;5013956;28;2875;-60
2022/10/19 01:40:10;;;;;;;;;;;;;;;21.23;61.84;102113.69;5018822;28;1877;-60
2022/10/19 01:42:41;;;;;;;;;;;;;;;21.22;61.82;102106.44;5029185;28;3081;-60
2022/10/19 01:45:10;;;;;;;;;;;;;;;21.23;61.89;102107.91;5016821;28;2958;-60
2022/10/19 01:47:47;;;;;;;;;;;;;;;21.23;61.88;102119.44;5018027;28;2917;-59
2022/10/19 01:50:15;;;;;;;;;;;;;;;21.23;62.01;102113.69;5048134;28;2985;-60
2022/10/19 01:52:41;;;;;;;;;;;;;;;21.23;61.77;102102.16;5024843;28;2905;-60
2022/10/19 01:55:08;;;;;;;;;;;;;;;21.23;61.75;102090.63;5022429;28;2822;-60
2022/10/19 01:57:36;;;;;;;;;;;;;;;21.22;61.74;102097.78;5030844;28;2831;-60
2022/10/19 02:00:06;;;;;;;;;;;;;;;21.22;61.82;102102.81;5046611;28;2749;-60
2022/10/19 02:02:37;;;;;;;;;;;;;;;21.22;61.97;102097.03;5027426;28;2838;-60
2022/10/19 02:05:03;;;;;;;;;;;;;;;21.21;61.96;102084.78;5028339;28;2765;-60
2022/10/19 02:07:30;;;;;;;;;;;;;;;21.21;61.93;102084.00;5015712;28;2714;-60
2022/10/19 02:09:56;;;;;;;;;;;;;;;21.21;61.91;102081.88;5014229;28;2699;-60
2022/10/19 02:12:23;;;;;;;;;;;;;;;21.21;62.08;102081.88;5016911;28;2659;-59
2022/10/19 02:14:49;;;;;;;;;;;;;;;21.19;61.77;102090.41;5013274;28;2780;-60
2022/10/19 02:17:17;;;;;;;;;;;;;;;21.19;61.92;102095.41;5013208;28;2867;-60
2022/10/19 02:19:43;;;;;;;;;;;;;;;21.21;62.03;102095.53;5028910;28;2918;-60
2022/10/19 02:22:10;;;;;;;;;;;;;;;21.20;61.86;102097.66;5013859;28;2538;-60
2022/10/19 02:24:36;;;;;;;;;;;;;;;21.19;61.88;102101.94;5047283;28;3025;-60
2022/10/19 02:27:04;;;;;;;;;;;;;;;21.20;61.73;102091.91;5013410;28;3001;-60
2022/10/19 02:29:31;;;;;;;;;;;;;;;21.19;61.72;102101.94;5013631;28;2794;-60
2022/10/19 02:31:57;;;;;;;;;;;;;;;21.19;61.88;102096.16;5004473;28;3017;-60
2022/10/19 02:34:23;;;;;;;;;;;;;;;21.19;61.64;102096.16;5015807;28;2825;-60
2022/10/19 02:36:50;;;;;;;;;;;;;;;21.19;61.73;102101.94;5014600;28;3214;-60
2022/10/19 02:39:16;;;;;;;;;;;;;;;21.18;61.71;102100.41;5016954;28;2577;-60
2022/10/19 02:42:00;;;;;;;;;;;;;;;21.17;61.61;102093.16;5011237;28;2859;-60
2022/10/19 02:44:36;;;;;;;;;;;;;;;21.17;61.73;102093.16;5013932;28;2737;-60
2022/10/19 02:47:08;;;;;;;;;;;;;;;21.18;61.64;102076.63;5029440;28;2808;-60
2022/10/19 02:49:35;;;;;;;;;;;;;;;21.19;61.61;102092.50;5029825;28;2796;-60
2022/10/19 02:52:02;;;;;;;;;;;;;;;21.20;61.73;102082.50;5013466;28;3035;-60
2022/10/19 02:54:28;;;;;;;;;;;;;;;21.21;61.66;102098.41;5013884;28;2861;-60
2022/10/19 02:56:55;;;;;;;;;;;;;;;21.21;61.54;102090.53;5016732;28;2818;-60
2022/10/19 02:59:21;;;;;;;;;;;;;;;21.23;61.62;102096.41;5013747;28;2665;-60
2022/10/19 03:01:47;;;;;;;;;;;;;;;21.24;61.68;102095.03;5015071;28;2016;-60
2022/10/19 03:04:14;;;;;;;;;;;;;;;21.24;61.56;102097.91;5012521;28;2753;-60
2022/10/19 03:06:40;;;;;;;;;;;;;;;21.26;61.63;102095.16;5018732;28;2926;-60
2022/10/19 03:09:07;;;;;;;;;;;;;;;21.27;61.63;102101.69;5012464;28;3226;-60
2022/10/19 03:11:33;;;;;;;;;;;;;;;21.26;61.49;102100.94;5016915;28;2983;-60
2022/10/19 03:13:59;;;;;;;;;;;;;;;21.26;61.35;102100.19;5013857;28;2834;-60
2022/10/19 03:16:25;;;;;;;;;;;;;;;21.26;61.39;102108.81;5013184;28;2708;-60
2022/10/19 03:18:53;;;;;;;;;;;;;;;21.26;61.51;102106.69;5015556;28;2798;-60
2022/10/19 03:21:19;;;;;;;;;;;;;;;21.27;61.68;102104.56;5012972;28;2564;-60
2022/10/19 03:23:45;;;;;;;;;;;;;;;21.25;61.83;102110.94;5011475;28;2839;-60
2022/10/19 03:26:12;;;;;;;;;;;;;;;21.25;61.79;102116.69;5012804;28;2944;-60
2022/10/19 03:28:39;;;;;;;;;;;;;;;21.26;61.53;102108.81;5011743;28;2831;-60
2022/10/19 03:31:05;;;;;;;;;;;;;;;21.26;61.79;102112.44;5014146;28;2962;-60
2022/10/19 03:33:31;;;;;;;;;;;;;;;21.26;61.48;102123.97;5012721;28;2696;-60
2022/10/19 03:36:18;;;;;;;;;;;;;;;21.28;61.79;102127.00;5013722;28;2772;-60
2022/10/19 03:38:45;;;;;;;;;;;;;;;21.29;61.49;102125.59;5014741;28;2777;-60
2022/10/19 03:41:11;;;;;;;;;;;;;;;21.31;61.91;102125.72;5013331;28;2919;-60
2022/10/19 03:43:37;;;;;;;;;;;;;;;21.32;61.72;102132.97;5013436;28;2767;-60
2022/10/19 03:46:04;;;;;;;;;;;;;;;21.31;61.69;102125.72;5016972;28;2528;-60
2022/10/19 03:48:30;;;;;;;;;;;;;;;21.32;61.64;102132.97;5005901;28;2823;-60
2022/10/19 03:50:57;;;;;;;;;;;;;;;21.32;61.86;102132.97;5011316;28;2651;-60
2022/10/19 03:53:23;;;;;;;;;;;;;;;21.32;61.79;102138.75;5013769;28;2708;-60
2022/10/19 03:55:49;;;;;;;;;;;;;;;21.32;61.92;102130.09;5013847;28;2585;-60
2022/10/19 03:58:16;;;;;;;;;;;;;;;21.32;61.86;102127.22;5014452;28;1720;-60
2022/10/19 04:00:42;;;;;;;;;;;;;;;21.33;61.69;102143.16;5011821;28;2966;-60
2022/10/19 04:03:08;;;;;;;;;;;;;;;21.32;61.94;102135.84;5012744;28;3412;-60
2022/10/19 04:05:35;;;;;;;;;;;;;;;21.31;62.00;102131.50;5012926;28;2684;-60
2022/10/19 04:08:01;;;;;;;;;;;;;;;21.32;62.03;102144.50;5013817;28;2926;-60
2022/10/19 04:10:29;;;;;;;;;;;;;;;21.31;61.80;102134.38;5011099;28;2863;-59
2022/10/19 04:12:55;;;;;;;;;;;;;;;21.31;62.05;102137.25;5013296;28;2764;-60
2022/10/19 04:15:22;;;;;;;;;;;;;;;21.31;61.73;102142.28;5012906;28;2814;-60
2022/10/19 04:17:48;;;;;;;;;;;;;;;21.31;61.99;102145.16;5011694;28;2832;-60
2022/10/19 04:20:14;;;;;;;;;;;;;;;21.30;62.14;102153.03;5015503;28;2874;-60
2022/10/19 04:22:41;;;;;;;;;;;;;;;21.30;62.28;102152.28;5013191;28;2799;-60
2022/10/19 04:25:08;;;;;;;;;;;;;;;21.30;62.32;102158.81;5012033;28;1929;-59
2022/10/19 04:27:34;;;;;;;;;;;;;;;21.29;62.25;102151.53;5011861;28;1691;-60
2022/10/19 04:30:01;;;;;;;;;;;;;;;21.28;62.51;102150.03;5010600;28;2469;-60
2022/10/19 04:32:27;;;;;;;;;;;;;;;21.29;62.47;102151.53;5013306;28;2770;-60
2022/10/19 04:34:53;;;;;;;;;;;;;;;21.29;62.56;102150.78;5013206;28;2603;-60
2022/10/19 04:37:20;;;;;;;;;;;;;;;21.29;62.58;102153.66;5017001;28;1683;-60
2022/10/19 04:39:46;;;;;;;;;;;;;;;21.28;62.44;102155.81;5015188;28;2813;-60
2022/10/19 04:42:12;;;;;;;;;;;;;;;21.27;62.74;102160.03;5010772;28;2911;-60
2022/10/19 04:44:39;;;;;;;;;;;;;;;21.28;62.79;102166.53;5014731;28;1636;-61
2022/10/19 04:47:05;;;;;;;;;;;;;;;21.27;62.50;102159.28;5012559;28;2853;-60
2022/10/19 04:49:31;;;;;;;;;;;;;;;21.30;62.84;102161.69;5008265;28;2903;-65
2022/10/19 04:51:58;;;;;;;;;;;;;;;21.31;63.03;102166.06;5009979;28;2878;-64
2022/10/19 04:54:24;;;;;;;;;;;;;;;21.38;62.83;102163.56;5010997;28;3004;-68
2022/10/19 04:56:52;;;;;;;;;;;;;;;21.36;62.73;102172.09;5004708;28;3003;-65
2022/10/19 04:59:59;;;;;;;;;;;;;;;20.97;58.79;102158.09;5003528;28;3399;-64
2022/10/19 05:02:25;;;;;;;;;;;;;;;21.06;58.55;102169.53;5013658;28;1857;-63
2022/10/19 05:04:51;;;;;;;;;;;;;;;21.14;58.17;102163.50;5009199;28;2652;-64
2022/10/19 05:07:18;;;;;;;;;;;;;;;21.17;58.34;102170.94;5018807;28;1789;-64
2022/10/19 05:09:44;;;;;;;;;;;;;;;21.20;58.93;102168.94;5013965;28;2742;-64
2022/10/19 05:12:10;;;;;;;;;;;;;;;21.21;59.67;102167.53;5011218;28;2831;-63
2022/10/19 05:14:37;;;;;;;;;;;;;;;21.22;59.86;102175.56;5013159;28;2815;-64
2022/10/19 05:17:08;;;;;;;;;;;;;;;21.23;60.21;102170.56;5013858;28;1865;-63
2022/10/19 05:19:34;;;;;;;;;;;;;;;21.24;60.18;102172.81;5015078;28;2886;-64
2022/10/19 05:22:00;;;;;;;;;;;;;;;21.26;60.13;102180.84;5016256;28;1770;-64
2022/10/19 05:24:27;;;;;;;;;;;;;;;21.28;60.45;102187.50;5017421;28;2886;-64
2022/10/19 05:26:53;;;;;;;;;;;;;;;21.29;60.61;102191.88;5007233;28;2336;-64
2022/10/19 05:29:19;;;;;;;;;;;;;;;21.30;60.54;102192.59;5012077;28;2878;-64
2022/10/19 05:31:46;;;;;;;;;;;;;;;21.30;60.43;102193.38;5013677;28;1646;-64
2022/10/19 05:34:12;;;;;;;;;;;;;;;21.32;60.83;102192.75;5013093;28;2812;-64
2022/10/19 05:36:38;;;;;;;;;;;;;;;21.32;61.06;102195.63;5015325;28;1730;-64
2022/10/19 05:39:06;;;;;;;;;;;;;;;21.32;61.06;102186.97;5011782;28;2950;-64
2022/10/19 05:41:32;;;;;;;;;;;;;;;21.31;60.92;102194.88;5011041;28;2878;-64
2022/10/19 05:43:59;;;;;;;;;;;;;;;21.32;61.21;102202.13;5016781;28;1742;-64
2022/10/19 05:46:26;;;;;;;;;;;;;;;21.32;61.33;102196.38;5011236;28;2751;-64
2022/10/19 05:48:53;;;;;;;;;;;;;;;21.30;61.25;102196.25;5015822;28;2869;-64
2022/10/19 05:51:19;;;;;;;;;;;;;;;21.31;61.51;102202.78;5015174;28;1669;-63
2022/10/19 05:53:46;;;;;;;;;;;;;;;21.30;61.27;102196.25;5017928;28;2833;-64
2022/10/19 05:56:15;;;;;;;;;;;;;;;21.31;61.37;102194.13;5012632;28;3080;-64
2022/10/19 05:58:42;;;;;;;;;;;;;;;21.31;61.39;102205.66;5021827;28;2839;-64
2022/10/19 06:01:08;;;;;;;;;;;;;;;21.30;61.45;102193.38;5020634;28;1743;-64
2022/10/19 06:03:34;;;;;;;;;;;;;;;21.31;61.69;102200.63;5017710;28;1783;-64
2022/10/19 06:06:04;;;;;;;;;;;;;;;21.30;61.65;102199.16;5017959;28;1814;-64
2022/10/19 06:08:30;;;;;;;;;;;;;;;21.30;61.88;102209.91;5019051;28;2759;-64
2022/10/19 06:11:07;;;;;;;;;;;;;;;21.29;61.92;102206.28;5012442;28;2824;-64
2022/10/19 06:13:33;;;;;;;;;;;;;;;21.29;61.85;102203.38;5018887;28;1934;-64
2022/10/19 06:15:59;;;;;;;;;;;;;;;21.29;62.14;102214.91;5019112;28;2739;-64
2022/10/19 06:18:26;;;;;;;;;;;;;;;21.29;62.02;102220.69;5016684;28;2846;-64
2022/10/19 06:20:52;;;;;;;;;;;;;;;21.28;62.46;102212.66;5017771;28;2853;-64
2022/10/19 06:23:18;;;;;;;;;;;;;;;21.28;62.39;102224.94;5015196;28;2624;-64
2022/10/19 06:25:45;;;;;;;;;;;;;;;21.28;62.17;102224.94;5017971;28;3184;-64
2022/10/19 06:28:11;;;;;;;;;;;;;;;21.27;62.60;102219.78;5017125;28;2450;-64
2022/10/19 06:30:38;;;;;;;;;;;;;;;21.25;62.70;102214.66;5017583;28;2837;-64
2022/10/19 06:33:05;;;;;;;;;;;;;;;21.27;62.70;102228.44;5014506;28;2756;-64
2022/10/19 06:35:31;;;;;;;;;;;;;;;21.26;62.80;102233.47;5012752;28;2980;-62
2022/10/19 06:37:58;;;;;;;;;;;;;;;21.26;62.86;102230.56;5017265;28;1606;-64
2022/10/19 06:40:24;;;;;;;;;;;;;;;21.24;62.87;102229.69;5015940;28;2887;-63
2022/10/19 06:42:50;;;;;;;;;;;;;;;21.25;62.74;102220.41;5018277;28;2920;-62
2022/10/19 06:45:17;;;;;;;;;;;;;;;21.24;62.92;102224.69;5018745;28;1625;-62
2022/10/19 06:47:43;;;;;;;;;;;;;;;21.21;62.82;102228.03;5017854;28;2881;-61
2022/10/19 06:50:09;;;;;;;;;;;;;;;21.22;62.63;102224.53;5014747;28;1811;-61
2022/10/19 06:52:37;;;;;;;;;;;;;;;21.23;62.54;102226.03;5017424;28;1510;-63
2022/10/19 06:55:03;;;;;;;;;;;;;;;21.21;62.75;102225.94;5017990;28;1975;-62
2022/10/19 06:57:29;;;;;;;;;;;;;;;21.22;62.71;102235.31;5013949;28;1855;-63
2022/10/19 06:59:56;;;;;;;;;;;;;;;21.21;62.83;102237.47;5013949;28;2755;-63
2022/10/19 07:02:22;;;;;;;;;;;;;;;21.20;62.86;102235.94;5014634;28;1605;-63
2022/10/19 07:04:48;;;;;;;;;;;;;;;21.20;62.73;102238.81;5014070;28;1768;-63
2022/10/19 07:07:15;;;;;;;;;;;;;;;21.21;62.62;102242.44;5017804;28;1713;-63
2022/10/19 07:09:41;;;;;;;;;;;;;;;21.19;62.68;102237.31;5018880;28;1617;-63
2022/10/19 07:12:09;;;;;;;;;;;;;;;21.18;62.15;102232.91;5018047;28;1747;-64
2022/10/19 07:14:38;;;;;;;;;;;;;;;21.19;62.14;102243.09;5017783;28;1972;-63
2022/10/19 07:17:05;;;;;;;;;;;;;;;21.19;61.66;102251.72;5013860;28;1796;-64
2022/10/19 07:19:31;;;;;;;;;;;;;;;21.22;61.33;102255.50;5017513;28;1665;-63
2022/10/19 07:21:57;;;;;;;;;;;;;;;21.23;61.42;102256.97;5019227;28;1537;-63
2022/10/19 07:24:24;;;;;;;;;;;;;;;21.20;61.63;102264.75;5017934;28;1795;-63
2022/10/19 07:26:50;;;;;;;;;;;;;;;21.13;61.59;102259.97;5017519;28;1688;-64
2022/10/19 07:29:16;;;;;;;;;;;;;;;21.09;60.35;102259.69;5018212;28;1656;-63
2022/10/19 07:31:42;;;;;;;;;;;;;;;21.07;59.04;102262.44;5015866;28;1690;-65
2022/10/19 07:34:10;;;;;;;;;;;;;;;21.07;58.58;102262.44;5020318;28;1977;-64
2022/10/19 07:36:36;;;;;;;;;;;;;;;20.98;57.33;102257.50;5012993;28;1735;-63
2022/10/19 07:39:04;;;;;;;;;;;;;;;20.80;56.24;102252.06;5016259;28;1792;-63
2022/10/19 07:41:30;;;;;;;;;;;;;;;20.56;55.48;102256.16;5018498;28;1618;-64
2022/10/19 07:43:57;;;;;;;;;;;;;;;20.50;55.05;102262.22;5013975;28;1577;-64
2022/10/19 07:46:24;;;;;;;;;;;;;;;20.81;54.79;102261.44;5014120;28;1816;-65
2022/10/19 07:48:51;;;;;;;;;;;;;;;20.99;55.94;102251.13;5014832;28;1640;-57
2022/10/19 07:51:17;;;;;;;;;;;;;;;21.10;55.83;102255.44;5011544;28;1686;-59
2022/10/19 07:53:44;;;;;;;;;;;;;;;21.08;55.75;102263.97;5015025;28;1980;-60
2022/10/19 07:56:19;;;;;;;;;;;;;;;21.11;55.70;102259.81;5013577;28;1803;-59
2022/10/19 07:58:46;;;;;;;;;;;;;;;21.11;55.70;102265.59;5017595;28;1629;-59
2022/10/19 08:01:13;;;;;;;;;;;;;;;20.90;54.42;102267.13;5011106;28;1815;-61
2022/10/19 08:03:39;;;;;;;;;;;;;;;20.38;53.19;102270.78;5015436;28;1576;-60
2022/10/19 08:06:25;;;;;;;;;;;;;;;20.75;53.69;102267.53;5017077;28;1705;-60
2022/10/19 08:08:52;;;;;;;;;;;;;;;20.93;54.41;102270.88;5013969;28;1581;-61
2022/10/19 08:11:19;;;;;;;;;;;;;;;21.01;54.56;102262.81;5012958;28;1864;-61
2022/10/19 08:13:46;;;;;;;;;;;;;;;21.06;54.98;102272.47;5009962;28;1815;-63
2022/10/19 08:16:28;;;;;;;;;;;;;;;21.06;55.38;102278.22;5009307;28;2906;-64
2022/10/19 08:18:56;;;;;;;;;;;;;;;21.11;55.50;102280.72;5007194;28;2956;-63
2022/10/19 08:21:23;;;;;;;;;;;;;;;21.13;55.59;102283.75;5006051;28;3517;-64
2022/10/19 08:23:49;;;;;;;;;;;;;;;21.15;55.55;102288.91;5013205;28;2569;-64
2022/10/19 08:26:15;;;;;;;;;;;;;;;21.16;55.88;102290.41;5015306;28;2837;-64
2022/10/19 08:28:42;;;;;;;;;;;;;;;21.15;55.79;102291.03;5014144;28;2881;-63
2022/10/19 08:31:18;;;;;;;;;;;;;;;21.19;55.69;102292.06;5014949;28;1838;-63
2022/10/19 08:33:44;;;;;;;;;;;;;;;21.17;55.94;102294.06;5018012;28;2953;-64
2022/10/19 08:36:11;;;;;;;;;;;;;;;21.18;55.97;102302.06;5013566;28;1898;-64
2022/10/19 08:38:38;;;;;;;;;;;;;;;21.15;56.00;102293.91;5017381;28;1589;-63
2022/10/19 08:41:27;;;;;;;;;;;;;;;21.17;56.07;102291.16;5013081;28;1799;-63
2022/10/19 08:43:55;;;;;;;;;;;;;;;21.17;56.06;102297.69;5014360;28;3004;-63
2022/10/19 08:46:23;;;;;;;;;;;;;;;21.17;56.29;102306.31;5021621;28;1536;-63
2022/10/19 08:48:50;;;;;;;;;;;;;;;21.18;56.39;102315.72;5013944;28;1655;-64
2022/10/19 08:51:16;;;;;;;;;;;;;;;21.17;56.13;102306.31;5019171;28;1806;-64
2022/10/19 08:53:44;;;;;;;;;;;;;;;21.17;56.44;102311.34;5002494;28;1644;-64
2022/10/19 08:56:25;;;;;;;;;;;;;;;21.17;56.48;102311.34;5012087;28;1938;-64
2022/10/19 08:59:31;;;;;;;;;;;;;;;21.17;56.16;102303.44;5011275;28;1692;-64
2022/10/19 09:01:58;;;;;;;;;;;;;;;21.18;56.20;102302.06;5008071;28;1754;-63
2022/10/19 09:04:25;;;;;;;;;;;;;;;21.18;56.58;102301.31;5011346;28;1626;-64
2022/10/19 09:07:10;;;;;;;;;;;;;;;21.17;56.24;102306.31;5015803;28;1660;-64
2022/10/19 09:09:38;;;;;;;;;;;;;;;21.16;56.55;102304.81;5011774;28;2675;-63
2022/10/19 09:12:05;;;;;;;;;;;;;;;21.18;56.41;102302.06;5028273;28;1593;-62
2022/10/19 09:14:37;;;;;;;;;;;;;;;21.17;56.52;102303.44;5013145;28;2885;-63
2022/10/19 09:17:08;;;;;;;;;;;;;;;21.21;56.81;102300.06;5016733;28;2948;-65
2022/10/19 09:19:34;;;;;;;;;;;;;;;21.24;56.92;102304.59;5021474;28;2938;-61
2022/10/19 09:22:01;;;;;;;;;;;;;;;21.22;57.36;102313.84;5043355;28;2884;-63
2022/10/19 09:24:29;;;;;;;;;;;;;;;21.20;57.78;102310.09;5017218;28;2553;-63
2022/10/19 09:26:58;;;;;;;;;;;;;;;20.99;56.00;102311.63;5024597;28;3271;-63
2022/10/19 09:29:37;;;;;;;;;;;;;;;20.78;54.10;102317.41;5017509;28;1574;-61
2022/10/19 09:32:04;;;;;;;;;;;;;;;20.95;54.71;102327.88;5012282;28;1780;-60
2022/10/19 09:34:37;;;;;;;;;;;;;;;21.05;54.92;102319.91;5019011;28;2005;-60
2022/10/19 09:37:03;;;;;;;;;;;;;;;21.10;55.25;102319.56;5012612;28;1781;-61
2022/10/19 09:39:29;;;;;;;;;;;;;;;21.13;55.24;102311.81;5016475;28;1760;-62
2022/10/19 09:42:03;;;;;;;;;;;;;;;21.16;55.35;102322.09;5014361;28;1867;-62
2022/10/19 09:44:29;;;;;;;;;;;;;;;21.17;55.67;102320.72;5016939;28;1549;-61
2022/10/19 09:47:06;;;;;;;;;;;;;;;21.18;55.75;102315.72;5013285;28;1590;-62
2022/10/19 09:49:38;;;;;;;;;;;;;;;21.20;56.06;102321.63;5014511;28;1807;-62
2022/10/19 09:52:04;;;;;;;;;;;;;;;21.18;56.39;102313.59;5010651;28;1721;-62
2022/10/19 09:54:34;;;;;;;;;;;;;;;21.19;56.88;102320.88;5023933;28;1922;-62
2022/10/19 09:57:00;;;;;;;;;;;;;;;21.18;57.20;102322.22;5032760;28;1695;-62
2022/10/19 09:59:32;;;;;;;;;;;;;;;21.20;56.82;102333.13;5017822;28;1665;-62
2022/10/19 10:02:04;;;;;;;;;;;;;;;21.19;57.20;102326.63;5012725;28;1637;-62
2022/10/19 10:04:31;;;;;;;;;;;;;;;21.19;57.57;102338.16;5016282;28;1614;-62
2022/10/19 10:06:57;;;;;;;;;;;;;;;21.18;57.60;102336.63;5018281;28;1617;-62
2022/10/19 10:09:25;;;;;;;;;;;;;;;21.19;57.57;102334.50;5014542;28;1789;-62
2022/10/19 10:11:52;;;;;;;;;;;;;;;21.19;57.95;102329.50;5032248;28;2087;-62
2022/10/19 10:14:28;;;;;;;;;;;;;;;21.20;57.49;102333.13;5019187;28;1981;-62
2022/10/19 10:17:17;;;;;;;;;;;;;;;21.18;57.72;102330.88;5018727;28;1836;-62
2022/10/19 10:19:59;;;;;;;;;;;;;;;21.19;58.00;102334.50;5011266;28;1732;-62
2022/10/19 10:22:26;;;;;;;;;;;;;;;21.18;58.19;102330.88;5019859;28;1658;-62
2022/10/19 10:24:52;;;;;;;;;;;;;;;21.18;58.03;102336.63;5020012;28;1585;-62
2022/10/19 10:27:32;;;;;;;;;;;;;;;21.18;58.19;102336.63;5016269;28;1565;-62
2022/10/19 10:30:01;;;;;;;;;;;;;;;21.18;58.04;102339.50;5013398;28;1529;-62
2022/10/19 10:32:27;;;;;;;;;;;;;;;21.19;58.06;102343.91;5024666;28;2007;-62
2022/10/19 10:35:00;;;;;;;;;;;;;;;21.19;58.23;102343.91;5005970;28;1906;-62
2022/10/19 10:37:28;;;;;;;;;;;;;;;21.19;58.40;102337.38;5013697;28;1601;-62
2022/10/19 10:39:55;;;;;;;;;;;;;;;21.19;58.31;102335.28;5018538;28;1588;-62
2022/10/19 10:42:28;;;;;;;;;;;;;;;21.20;58.41;102339.66;5018024;28;1818;-62
2022/10/19 10:44:55;;;;;;;;;;;;;;;21.20;58.16;102350.41;5017264;28;1589;-62
2022/10/19 10:47:21;;;;;;;;;;;;;;;21.20;58.57;102342.53;5014563;28;1800;-62
2022/10/19 10:49:57;;;;;;;;;;;;;;;21.21;58.40;102334.63;5015678;28;2870;-62
2022/10/19 10:52:24;;;;;;;;;;;;;;;21.19;58.27;102337.38;5024024;28;3217;-72
2022/10/19 10:55:00;;;;;;;;;;;;;;;20.80;54.31;102326.91;5015435;28;1926;-58
2022/10/19 10:57:31;;;;;;;;;;;;;;;20.62;52.77;102332.19;5018296;28;2818;-62
2022/10/19 11:00:06;;;;;;;;;;;;;;;20.86;53.26;102338.84;5032350;28;2696;-62
2022/10/19 11:02:34;;;;;;;;;;;;;;;20.98;53.85;102341.81;5019279;28;1755;-54
2022/10/19 11:05:03;;;;;;;;;;;;;;;21.06;55.23;102341.59;5015645;28;2940;-64
2022/10/19 11:07:31;;;;;;;;;;;;;;;21.11;54.97;102338.34;5013806;28;2826;-66
2022/10/19 11:09:58;;;;;;;;;;;;;;;21.16;55.87;102344.38;5017111;28;2826;-66
2022/10/19 11:12:38;;;;;;;;;;;;;;;21.13;56.26;102337.75;5011181;28;2989;-66
2022/10/19 11:15:06;;;;;;;;;;;;;;;21.17;56.62;102340.91;5017853;28;2466;-66
2022/10/19 11:17:32;;;;;;;;;;;;;;;21.16;56.94;102335.75;5016833;28;2798;-72
2022/10/19 11:19:59;;;;;;;;;;;;;;;21.18;57.22;102336.63;5013975;28;2524;-70
2022/10/19 11:22:30;;;;;;;;;;;;;;;21.17;57.30;102328.63;5017101;28;2791;-62
2022/10/19 11:24:57;;;;;;;;;;;;;;;21.15;56.68;102323.47;5031174;28;2873;-63
2022/10/19 11:27:44;;;;;;;;;;;;;;;21.13;56.87;102312.56;5016545;28;2734;-63
2022/10/19 11:30:17;;;;;;;;;;;;;;;21.15;57.21;102311.19;5021700;28;2888;-63
2022/10/19 11:33:02;;;;;;;;;;;;;;;21.18;57.29;102307.81;5018727;28;2821;-63
2022/10/19 11:35:38;;;;;;;;;;;;;;;21.16;57.23;102319.22;5015313;28;2830;-63
2022/10/19 11:38:13;;;;;;;;;;;;;;;21.14;56.56;102319.06;5022968;28;3229;-62
2022/10/19 11:41:06;;;;;;;;;;;;;;;21.03;55.43;102308.28;5015198;28;2864;-64
2022/10/19 11:44:06;;;;;;;;;;;;;;;20.82;51.78;102311.88;5014535;28;2960;-65
2022/10/19 11:46:50;;;;;;;;;;;;;;;20.98;52.31;102313.00;5014242;28;2854;-64
2022/10/19 11:49:27;;;;;;;;;;;;;;;21.08;52.91;102307.16;5013774;28;2834;-62
2022/10/19 11:51:56;;;;;;;;;;;;;;;21.11;54.11;102308.78;5030435;28;2812;-62
2022/10/19 11:54:35;;;;;;;;;;;;;;;21.14;54.52;102310.44;5020637;28;2862;-61
2022/10/19 11:57:12;;;;;;;;;;;;;;;21.20;54.46;102293.56;5027713;28;2894;-63
2022/10/19 11:59:42;;;;;;;;;;;;;;;21.24;55.02;102295.97;5015703;28;1566;-63
2022/10/19 12:02:29;;;;;;;;;;;;;;;21.26;55.80;102296.09;5013896;28;3091;-63
2022/10/19 12:04:56;;;;;;;;;;;;;;;21.30;55.63;102288.47;5030114;28;1556;-63
2022/10/19 12:07:29;;;;;;;;;;;;;;;21.31;55.56;102297.84;5014836;28;1739;-66
2022/10/19 12:10:03;;;;;;;;;;;;;;;21.30;55.94;102308.63;5016780;28;1764;-63
2022/10/19 12:12:37;;;;;;;;;;;;;;;21.26;56.08;102302.59;5031013;28;1683;-64
2022/10/19 12:15:15;;;;;;;;;;;;;;;21.23;56.11;102298.06;5029721;28;2027;-64
2022/10/19 12:17:43;;;;;;;;;;;;;;;21.22;56.18;102302.34;5017532;28;1709;-63
2022/10/19 12:20:14;;;;;;;;;;;;;;;21.22;56.48;102302.34;5015324;28;1569;-62
2022/10/19 12:22:45;;;;;;;;;;;;;;;21.21;56.75;102308.72;5016845;28;1865;-62
2022/10/19 12:25:11;;;;;;;;;;;;;;;21.21;56.62;102303.72;5014962;28;1562;-61
2022/10/19 12:27:38;;;;;;;;;;;;;;;21.21;56.73;102302.94;5021584;28;1620;-61
2022/10/19 12:30:05;;;;;;;;;;;;;;;21.20;56.79;102302.19;5015434;28;1618;-61
2022/10/19 12:32:34;;;;;;;;;;;;;;;21.19;57.09;102294.94;5016109;28;1598;-62
2022/10/19 12:35:16;;;;;;;;;;;;;;;21.26;56.69;102296.09;5017635;28;1969;-61
2022/10/19 12:37:48;;;;;;;;;;;;;;;21.34;56.38;102291.59;5017493;28;1674;-62
2022/10/19 12:40:35;;;;;;;;;;;;;;;21.40;56.46;102290.50;5015008;28;1574;-62
2022/10/19 12:43:04;;;;;;;;;;;;;;;21.45;56.37;102292.28;5012604;28;1707;-62
2022/10/19 12:45:34;;;;;;;;;;;;;;;21.47;56.64;102280.91;5012280;28;1607;-62
2022/10/19 12:48:06;;;;;;;;;;;;;;;21.49;56.55;102278.91;5010220;28;1597;-62
2022/10/19 12:50:48;;;;;;;;;;;;;;;21.51;56.42;102279.03;5018684;28;1717;-63
2022/10/19 12:53:29;;;;;;;;;;;;;;;21.52;56.76;102271.88;5014976;28;1728;-63
2022/10/19 12:55:59;;;;;;;;;;;;;;;21.46;57.13;102274.38;5012742;28;1910;-61
2022/10/19 12:58:25;;;;;;;;;;;;;;;21.44;57.33;102270.59;5009432;28;1668;-62